sensor_id;sensor_type;location;lat;lon;timestamp;temperature;humidity
18805;DHT22;9530;48.930;9.526;2022-08-25T00:55:09;19.10;99.90
18805;DHT22;9530;48.930;9.526;2022-08-25T00:57:40;19.10;99.90
18805;DHT22;9530;48.930;9.526;2022-08-25T01:00:13;19.00;99.90
18805;DHT22;9530;48.930;9.526;2022-08-25T01:02:40;19.00;99.90
18805;DHT22;9530;48.930;9.526;2022-08-25T01:05:08;19.00;99.90
18805;DHT22;9530;48.930;9.526;2022-08-25T01:07:35;18.90;99.90
18805;DHT22;9530;48.930;9.526;2022-08-25T01:10:05;18.90;99.90
18805;DHT22;9530;48.930;9.526;2022-08-25T01:12:33;18.80;99.90
18805;DHT22;9530;48.930;9.526;2022-08-25T01:15:01;18.80;99.90
18805;DHT22;9530;48.930;9.526;2022-08-25T01:17:32;18.80;99.90
18805;DHT22;9530;48.930;9.526;2022-08-25T01:20:00;18.80;99.90
18805;DHT22;9530;48.930;9.526;2022-08-25T01:22:28;18.90;99.90
18805;DHT22;9530;48.930;9.526;2022-08-25T01:24:59;18.90;99.90
18805;DHT22;9530;48.930;9.526;2022-08-25T01:27:28;18.90;99.90
18805;DHT22;9530;48.930;9.526;2022-08-25T01:29:55;18.90;99.90
18805;DHT22;9530;48.930;9.526;2022-08-25T01:32:22;19.00;99.90
18805;DHT22;9530;48.930;9.526;2022-08-25T01:34:49;19.10;99.90
18805;DHT22;9530;48.930;9.526;2022-08-25T01:37:16;19.20;99.90
18805;DHT22;9530;48.930;9.526;2022-08-25T01:39:45;19.40;99.90
18805;DHT22;9530;48.930;9.526;2022-08-25T01:42:18;19.50;99.90
18805;DHT22;9530;48.930;9.526;2022-08-25T01:44:48;19.60;99.90
18805;DHT22;9530;48.930;9.526;2022-08-25T01:47:15;19.70;99.90
18805;DHT22;9530;48.930;9.526;2022-08-25T01:49:42;19.70;99.90
18805;DHT22;9530;48.930;9.526;2022-08-25T01:52:11;19.70;99.90
18805;DHT22;9530;48.930;9.526;2022-08-25T01:54:38;19.70;99.90
18805;DHT22;9530;48.930;9.526;2022-08-25T01:57:06;19.70;99.90
18805;DHT22;9530;48.930;9.526;2022-08-25T01:59:33;19.70;99.90
18805;DHT22;9530;48.930;9.526;2022-08-25T02:02:00;19.70;99.90
18805;DHT22;9530;48.930;9.526;2022-08-25T02:04:27;19.70;99.90
18805;DHT22;9530;48.930;9.526;2022-08-25T02:06:56;19.70;99.90
18805;DHT22;9530;48.930;9.526;2022-08-25T02:09:23;19.60;99.90
18805;DHT22;9530;48.930;9.526;2022-08-25T02:11:50;19.50;99.90
18805;DHT22;9530;48.930;9.526;2022-08-25T02:14:18;19.50;99.90
18805;DHT22;9530;48.930;9.526;2022-08-25T02:16:47;19.50;99.90
18805;DHT22;9530;48.930;9.526;2022-08-25T02:19:15;19.40;99.90
18805;DHT22;9530;48.930;9.526;2022-08-25T02:21:42;19.30;99.90
18805;DHT22;9530;48.930;9.526;2022-08-25T02:24:10;19.20;99.90
18805;DHT22;9530;48.930;9.526;2022-08-25T02:26:37;19.20;99.90
18805;DHT22;9530;48.930;9.526;2022-08-25T02:29:05;19.00;99.90
18805;DHT22;9530;48.930;9.526;2022-08-25T02:31:34;19.00;99.90
18805;DHT22;9530;48.930;9.526;2022-08-25T02:34:02;18.90;99.90
18805;DHT22;9530;48.930;9.526;2022-08-25T02:36:29;18.80;99.90
18805;DHT22;9530;48.930;9.526;2022-08-25T02:38:56;18.80;99.90
18805;DHT22;9530;48.930;9.526;2022-08-25T02:41:24;18.70;99.90
18805;DHT22;9530;48.930;9.526;2022-08-25T02:43:51;18.60;99.90
18805;DHT22;9530;48.930;9.526;2022-08-25T02:46:20;18.50;99.90
18805;DHT22;9530;48.930;9.526;2022-08-25T02:48:48;18.50;99.90
18805;DHT22;9530;48.930;9.526;2022-08-25T02:51:18;18.40;99.90
18805;DHT22;9530;48.930;9.526;2022-08-25T02:53:45;18.30;99.90
18805;DHT22;9530;48.930;9.526;2022-08-25T02:56:14;18.20;99.90
18805;DHT22;9530;48.930;9.526;2022-08-25T02:58:41;18.00;99.90
18805;DHT22;9530;48.930;9.526;2022-08-25T03:01:09;17.90;99.90
18805;DHT22;9530;48.930;9.526;2022-08-25T03:03:37;17.80;99.90
18805;DHT22;9530;48.930;9.526;2022-08-25T03:06:06;17.70;99.90
18805;DHT22;9530;48.930;9.526;2022-08-25T03:08:34;17.60;99.90
18805;DHT22;9530;48.930;9.526;2022-08-25T03:11:01;17.60;99.90
18805;DHT22;9530;48.930;9.526;2022-08-25T03:13:27;17.50;99.90
18805;DHT22;9530;48.930;9.526;2022-08-25T03:15:54;17.40;99.90
18805;DHT22;9530;48.930;9.526;2022-08-25T03:18:21;17.40;99.90
18805;DHT22;9530;48.930;9.526;2022-08-25T03:20:48;17.30;99.90
18805;DHT22;9530;48.930;9.526;2022-08-25T03:23:16;17.30;99.90
18805;DHT22;9530;48.930;9.526;2022-08-25T03:25:43;17.20;99.90
18805;DHT22;9530;48.930;9.526;2022-08-25T03:28:28;17.20;99.90
18805;DHT22;9530;48.930;9.526;2022-08-25T03:30:57;17.10;99.90
18805;DHT22;9530;48.930;9.526;2022-08-25T03:33:24;17.00;99.90
18805;DHT22;9530;48.930;9.526;2022-08-25T03:35:51;16.90;99.90
18805;DHT22;9530;48.930;9.526;2022-08-25T03:38:20;16.90;99.90
18805;DHT22;9530;48.930;9.526;2022-08-25T03:40:48;16.90;99.90
18805;DHT22;9530;48.930;9.526;2022-08-25T03:43:15;16.90;99.90
18805;DHT22;9530;48.930;9.526;2022-08-25T03:45:43;16.80;99.90
18805;DHT22;9530;48.930;9.526;2022-08-25T03:48:10;16.80;99.90
18805;DHT22;9530;48.930;9.526;2022-08-25T03:50:43;16.80;99.90
18805;DHT22;9530;48.930;9.526;2022-08-25T03:53:10;16.70;99.90
18805;DHT22;9530;48.930;9.526;2022-08-25T03:55:39;16.70;99.90
18805;DHT22;9530;48.930;9.526;2022-08-25T03:58:06;16.80;99.90
18805;DHT22;9530;48.930;9.526;2022-08-25T04:00:33;16.80;99.90
18805;DHT22;9530;48.930;9.526;2022-08-25T04:03:00;16.70;99.90
18805;DHT22;9530;48.930;9.526;2022-08-25T04:05:27;16.70;99.90
18805;DHT22;9530;48.930;9.526;2022-08-25T04:07:53;16.70;99.90
18805;DHT22;9530;48.930;9.526;2022-08-25T04:10:20;16.70;99.90
18805;DHT22;9530;48.930;9.526;2022-08-25T04:12:49;16.70;99.90
18805;DHT22;9530;48.930;9.526;2022-08-25T04:15:15;16.70;99.90
18805;DHT22;9530;48.930;9.526;2022-08-25T04:17:43;16.60;99.90
18805;DHT22;9530;48.930;9.526;2022-08-25T04:20:10;16.60;99.90
18805;DHT22;9530;48.930;9.526;2022-08-25T04:22:37;16.60;99.90
18805;DHT22;9530;48.930;9.526;2022-08-25T04:25:05;16.60;99.90
18805;DHT22;9530;48.930;9.526;2022-08-25T04:27:32;16.60;99.90
18805;DHT22;9530;48.930;9.526;2022-08-25T04:30:00;16.60;99.90
18805;DHT22;9530;48.930;9.526;2022-08-25T04:32:27;16.60;99.90
18805;DHT22;9530;48.930;9.526;2022-08-25T04:34:54;16.60;99.90
18805;DHT22;9530;48.930;9.526;2022-08-25T04:37:20;16.60;99.90
18805;DHT22;9530;48.930;9.526;2022-08-25T04:39:47;16.60;99.90
18805;DHT22;9530;48.930;9.526;2022-08-25T04:44:39;16.60;99.90
18805;DHT22;9530;48.930;9.526;2022-08-25T04:47:07;16.60;99.90
18805;DHT22;9530;48.930;9.526;2022-08-25T04:49:35;16.60;99.90
18805;DHT22;9530;48.930;9.526;2022-08-25T04:52:02;16.60;99.90
18805;DHT22;9530;48.930;9.526;2022-08-25T04:54:29;16.60;99.90
18805;DHT22;9530;48.930;9.526;2022-08-25T04:56:55;16.70;99.90
18805;DHT22;9530;48.930;9.526;2022-08-25T04:59:22;16.70;99.90
18805;DHT22;9530;48.930;9.526;2022-08-25T05:04:20;16.70;99.90
18805;DHT22;9530;48.930;9.526;2022-08-25T05:06:47;16.70;99.90
18805;DHT22;9530;48.930;9.526;2022-08-25T05:09:13;16.70;99.90
18805;DHT22;9530;48.930;9.526;2022-08-25T05:11:40;16.70;99.90
18805;DHT22;9530;48.930;9.526;2022-08-25T05:14:07;16.70;99.90
18805;DHT22;9530;48.930;9.526;2022-08-25T05:16:37;16.80;99.90
18805;DHT22;9530;48.930;9.526;2022-08-25T05:19:04;16.70;99.90
18805;DHT22;9530;48.930;9.526;2022-08-25T05:21:32;16.80;99.90
18805;DHT22;9530;48.930;9.526;2022-08-25T05:24:00;16.80;99.90
18805;DHT22;9530;48.930;9.526;2022-08-25T05:26:28;16.80;99.90
18805;DHT22;9530;48.930;9.526;2022-08-25T05:28:57;16.80;99.90
18805;DHT22;9530;48.930;9.526;2022-08-25T05:31:25;16.80;99.90
18805;DHT22;9530;48.930;9.526;2022-08-25T05:33:52;16.80;99.90
18805;DHT22;9530;48.930;9.526;2022-08-25T05:36:20;16.80;99.90
18805;DHT22;9530;48.930;9.526;2022-08-25T05:38:50;16.90;99.90
18805;DHT22;9530;48.930;9.526;2022-08-25T05:41:19;16.90;99.90
18805;DHT22;9530;48.930;9.526;2022-08-25T05:43:48;17.00;99.90
18805;DHT22;9530;48.930;9.526;2022-08-25T05:46:16;17.00;99.90
18805;DHT22;9530;48.930;9.526;2022-08-25T05:48:43;17.10;99.90
18805;DHT22;9530;48.930;9.526;2022-08-25T05:51:11;17.10;99.90
18805;DHT22;9530;48.930;9.526;2022-08-25T05:53:41;17.20;99.90
18805;DHT22;9530;48.930;9.526;2022-08-25T05:56:10;17.30;99.90
18805;DHT22;9530;48.930;9.526;2022-08-25T05:58:38;17.40;99.90
18805;DHT22;9530;48.930;9.526;2022-08-25T06:01:05;17.50;99.90
18805;DHT22;9530;48.930;9.526;2022-08-25T06:03:46;17.50;99.90
18805;DHT22;9530;48.930;9.526;2022-08-25T06:06:13;17.70;99.90
18805;DHT22;9530;48.930;9.526;2022-08-25T06:08:40;17.80;99.90
18805;DHT22;9530;48.930;9.526;2022-08-25T06:11:08;17.90;99.90
18805;DHT22;9530;48.930;9.526;2022-08-25T06:13:35;18.00;99.90
18805;DHT22;9530;48.930;9.526;2022-08-25T06:16:02;18.20;99.90
18805;DHT22;9530;48.930;9.526;2022-08-25T06:18:29;18.30;99.90
18805;DHT22;9530;48.930;9.526;2022-08-25T06:20:55;18.40;99.90
18805;DHT22;9530;48.930;9.526;2022-08-25T06:23:22;18.50;99.90
18805;DHT22;9530;48.930;9.526;2022-08-25T06:25:49;18.70;99.90
18805;DHT22;9530;48.930;9.526;2022-08-25T06:28:18;18.80;99.90
18805;DHT22;9530;48.930;9.526;2022-08-25T06:30:45;18.90;99.90
18805;DHT22;9530;48.930;9.526;2022-08-25T06:33:12;19.00;99.90
18805;DHT22;9530;48.930;9.526;2022-08-25T06:35:41;19.20;99.90
18805;DHT22;9530;48.930;9.526;2022-08-25T06:38:08;19.40;99.90
18805;DHT22;9530;48.930;9.526;2022-08-25T06:40:35;19.60;99.90
18805;DHT22;9530;48.930;9.526;2022-08-25T06:43:01;19.90;99.90
18805;DHT22;9530;48.930;9.526;2022-08-25T06:45:32;20.10;99.90
18805;DHT22;9530;48.930;9.526;2022-08-25T06:47:59;20.30;99.90
18805;DHT22;9530;48.930;9.526;2022-08-25T06:50:25;20.50;99.90
18805;DHT22;9530;48.930;9.526;2022-08-25T06:52:52;20.80;99.90
18805;DHT22;9530;48.930;9.526;2022-08-25T06:55:19;21.00;99.90
18805;DHT22;9530;48.930;9.526;2022-08-25T06:57:46;21.30;99.90
18805;DHT22;9530;48.930;9.526;2022-08-25T07:00:13;21.40;99.90
18805;DHT22;9530;48.930;9.526;2022-08-25T07:02:42;21.70;99.90
18805;DHT22;9530;48.930;9.526;2022-08-25T07:05:08;21.80;99.90
18805;DHT22;9530;48.930;9.526;2022-08-25T07:07:36;21.90;99.90
18805;DHT22;9530;48.930;9.526;2022-08-25T07:10:04;22.10;99.90
18805;DHT22;9530;48.930;9.526;2022-08-25T07:12:31;22.30;99.90
18805;DHT22;9530;48.930;9.526;2022-08-25T07:14:57;22.50;99.90
18805;DHT22;9530;48.930;9.526;2022-08-25T07:17:24;22.60;99.90
18805;DHT22;9530;48.930;9.526;2022-08-25T07:19:52;22.70;99.90
18805;DHT22;9530;48.930;9.526;2022-08-25T07:22:19;22.90;99.90
18805;DHT22;9530;48.930;9.526;2022-08-25T07:24:46;23.00;99.90
18805;DHT22;9530;48.930;9.526;2022-08-25T07:27:13;23.10;99.90
18805;DHT22;9530;48.930;9.526;2022-08-25T07:29:40;23.20;99.90
18805;DHT22;9530;48.930;9.526;2022-08-25T07:32:07;23.30;99.90
18805;DHT22;9530;48.930;9.526;2022-08-25T07:34:33;23.50;99.90
18805;DHT22;9530;48.930;9.526;2022-08-25T07:37:20;23.60;99.90
18805;DHT22;9530;48.930;9.526;2022-08-25T07:39:47;23.80;99.90
18805;DHT22;9530;48.930;9.526;2022-08-25T07:42:16;23.90;99.90
18805;DHT22;9530;48.930;9.526;2022-08-25T07:44:43;24.00;99.90
18805;DHT22;9530;48.930;9.526;2022-08-25T07:47:10;24.20;99.90
18805;DHT22;9530;48.930;9.526;2022-08-25T07:49:36;24.20;99.90
18805;DHT22;9530;48.930;9.526;2022-08-25T07:52:03;24.40;99.90
18805;DHT22;9530;48.930;9.526;2022-08-25T07:54:31;24.50;99.90
18805;DHT22;9530;48.930;9.526;2022-08-25T07:56:58;24.60;99.90
18805;DHT22;9530;48.930;9.526;2022-08-25T07:59:25;24.70;99.90
18805;DHT22;9530;48.930;9.526;2022-08-25T08:01:52;24.80;99.90
18805;DHT22;9530;48.930;9.526;2022-08-25T08:04:18;24.90;99.90
18805;DHT22;9530;48.930;9.526;2022-08-25T08:06:45;24.90;99.90
18805;DHT22;9530;48.930;9.526;2022-08-25T08:09:12;25.00;99.90
18805;DHT22;9530;48.930;9.526;2022-08-25T08:11:40;25.10;99.90
18805;DHT22;9530;48.930;9.526;2022-08-25T08:14:09;25.10;99.90
18805;DHT22;9530;48.930;9.526;2022-08-25T08:16:37;25.10;99.90
18805;DHT22;9530;48.930;9.526;2022-08-25T08:19:04;25.10;99.90
18805;DHT22;9530;48.930;9.526;2022-08-25T08:21:33;25.30;99.90
18805;DHT22;9530;48.930;9.526;2022-08-25T08:24:01;25.30;99.90
18805;DHT22;9530;48.930;9.526;2022-08-25T08:26:28;25.50;99.90
18805;DHT22;9530;48.930;9.526;2022-08-25T08:28:56;25.50;99.90
18805;DHT22;9530;48.930;9.526;2022-08-25T08:31:24;25.80;99.90
18805;DHT22;9530;48.930;9.526;2022-08-25T08:33:52;25.80;99.90
18805;DHT22;9530;48.930;9.526;2022-08-25T08:36:20;25.90;99.90
18805;DHT22;9530;48.930;9.526;2022-08-25T08:38:47;26.00;99.90
18805;DHT22;9530;48.930;9.526;2022-08-25T08:41:39;26.10;99.90
18805;DHT22;9530;48.930;9.526;2022-08-25T08:44:29;26.20;99.90
18805;DHT22;9530;48.930;9.526;2022-08-25T08:47:03;26.30;99.90
18805;DHT22;9530;48.930;9.526;2022-08-25T08:49:36;26.40;99.90
18805;DHT22;9530;48.930;9.526;2022-08-25T08:52:06;26.60;99.90
18805;DHT22;9530;48.930;9.526;2022-08-25T08:54:36;26.70;99.90
18805;DHT22;9530;48.930;9.526;2022-08-25T08:57:09;26.70;99.90
18805;DHT22;9530;48.930;9.526;2022-08-25T08:59:45;26.80;99.90
18805;DHT22;9530;48.930;9.526;2022-08-25T09:02:18;26.80;99.90
18805;DHT22;9530;48.930;9.526;2022-08-25T09:04:51;26.80;99.90
18805;DHT22;9530;48.930;9.526;2022-08-25T09:07:23;26.90;99.90
18805;DHT22;9530;48.930;9.526;2022-08-25T09:09:52;26.90;99.90
18805;DHT22;9530;48.930;9.526;2022-08-25T09:12:25;26.90;99.90
18805;DHT22;9530;48.930;9.526;2022-08-25T09:15:07;27.00;99.90
18805;DHT22;9530;48.930;9.526;2022-08-25T09:17:57;27.10;99.90
18805;DHT22;9530;48.930;9.526;2022-08-25T09:20:35;27.20;99.90
18805;DHT22;9530;48.930;9.526;2022-08-25T09:23:16;27.40;99.90
18805;DHT22;9530;48.930;9.526;2022-08-25T09:25:53;27.40;99.90
18805;DHT22;9530;48.930;9.526;2022-08-25T09:28:29;27.50;99.90
18805;DHT22;9530;48.930;9.526;2022-08-25T09:30:59;27.60;99.90
18805;DHT22;9530;48.930;9.526;2022-08-25T09:33:28;27.60;99.90
18805;DHT22;9530;48.930;9.526;2022-08-25T09:35:56;27.70;99.90
18805;DHT22;9530;48.930;9.526;2022-08-25T09:38:23;27.90;99.90
18805;DHT22;9530;48.930;9.526;2022-08-25T09:40:53;27.90;99.90
18805;DHT22;9530;48.930;9.526;2022-08-25T09:43:23;27.90;99.90
18805;DHT22;9530;48.930;9.526;2022-08-25T09:45:59;28.00;99.90
18805;DHT22;9530;48.930;9.526;2022-08-25T09:48:28;28.10;99.90
18805;DHT22;9530;48.930;9.526;2022-08-25T09:50:59;28.20;99.90
18805;DHT22;9530;48.930;9.526;2022-08-25T09:53:27;28.50;99.90
18805;DHT22;9530;48.930;9.526;2022-08-25T09:55:58;28.60;99.90
18805;DHT22;9530;48.930;9.526;2022-08-25T09:58:29;28.60;99.90
18805;DHT22;9530;48.930;9.526;2022-08-25T10:01:10;28.70;99.90
18805;DHT22;9530;48.930;9.526;2022-08-25T10:03:54;28.60;99.90
18805;DHT22;9530;48.930;9.526;2022-08-25T10:06:22;28.40;99.90
18805;DHT22;9530;48.930;9.526;2022-08-25T10:08:57;28.20;99.90
18805;DHT22;9530;48.930;9.526;2022-08-25T10:11:33;28.10;99.90
18805;DHT22;9530;48.930;9.526;2022-08-25T10:14:06;28.20;99.90
18805;DHT22;9530;48.930;9.526;2022-08-25T10:16:34;28.50;99.90
18805;DHT22;9530;48.930;9.526;2022-08-25T10:19:04;28.80;99.90
18805;DHT22;9530;48.930;9.526;2022-08-25T10:21:32;28.90;99.90
18805;DHT22;9530;48.930;9.526;2022-08-25T10:23:59;28.80;99.90
18805;DHT22;9530;48.930;9.526;2022-08-25T10:26:33;28.90;99.90
18805;DHT22;9530;48.930;9.526;2022-08-25T10:29:09;29.10;99.90
18805;DHT22;9530;48.930;9.526;2022-08-25T10:31:46;29.10;99.90
18805;DHT22;9530;48.930;9.526;2022-08-25T10:34:24;28.90;99.90
18805;DHT22;9530;48.930;9.526;2022-08-25T10:36:59;28.60;99.90
18805;DHT22;9530;48.930;9.526;2022-08-25T10:39:38;28.40;99.90
18805;DHT22;9530;48.930;9.526;2022-08-25T10:42:19;28.50;99.90
18805;DHT22;9530;48.930;9.526;2022-08-25T10:44:53;28.50;99.90
18805;DHT22;9530;48.930;9.526;2022-08-25T10:48:00;28.80;99.90
18805;DHT22;9530;48.930;9.526;2022-08-25T10:50:33;29.20;99.90
18805;DHT22;9530;48.930;9.526;2022-08-25T10:53:21;29.50;99.90
18805;DHT22;9530;48.930;9.526;2022-08-25T10:55:59;29.80;99.90
18805;DHT22;9530;48.930;9.526;2022-08-25T11:01:39;30.10;99.90
18805;DHT22;9530;48.930;9.526;2022-08-25T11:04:14;30.20;99.90
18805;DHT22;9530;48.930;9.526;2022-08-25T11:06:49;29.90;99.90
18805;DHT22;9530;48.930;9.526;2022-08-25T11:09:20;29.40;99.90
18805;DHT22;9530;48.930;9.526;2022-08-25T11:11:52;29.20;99.90
18805;DHT22;9530;48.930;9.526;2022-08-25T11:14:24;28.90;99.90
18805;DHT22;9530;48.930;9.526;2022-08-25T11:16:58;28.60;99.90
18805;DHT22;9530;48.930;9.526;2022-08-25T11:19:30;28.30;99.90
18805;DHT22;9530;48.930;9.526;2022-08-25T11:22:03;28.20;99.90
18805;DHT22;9530;48.930;9.526;2022-08-25T11:24:39;28.50;99.90
18805;DHT22;9530;48.930;9.526;2022-08-25T11:27:14;29.00;99.90
18805;DHT22;9530;48.930;9.526;2022-08-25T11:29:47;29.40;99.90
18805;DHT22;9530;48.930;9.526;2022-08-25T11:32:17;29.80;99.90
18805;DHT22;9530;48.930;9.526;2022-08-25T11:34:48;29.90;99.90
18805;DHT22;9530;48.930;9.526;2022-08-25T11:37:20;30.00;99.90
18805;DHT22;9530;48.930;9.526;2022-08-25T11:40:07;29.50;99.90
18805;DHT22;9530;48.930;9.526;2022-08-25T11:42:47;29.30;99.90
18805;DHT22;9530;48.930;9.526;2022-08-25T11:45:32;29.50;99.90
18805;DHT22;9530;48.930;9.526;2022-08-25T11:48:14;29.90;99.90
18805;DHT22;9530;48.930;9.526;2022-08-25T11:50:58;30.20;99.90
18805;DHT22;9530;48.930;9.526;2022-08-25T11:53:27;30.60;99.90
18805;DHT22;9530;48.930;9.526;2022-08-25T11:55:57;30.90;99.90
18805;DHT22;9530;48.930;9.526;2022-08-25T11:58:36;31.00;99.90
18805;DHT22;9530;48.930;9.526;2022-08-25T12:01:05;31.10;99.90
18805;DHT22;9530;48.930;9.526;2022-08-25T12:03:55;31.10;99.90
18805;DHT22;9530;48.930;9.526;2022-08-25T12:15:59;31.80;99.90
18805;DHT22;9530;48.930;9.526;2022-08-25T12:18:43;31.90;99.90
18805;DHT22;9530;48.930;9.526;2022-08-25T12:21:13;32.00;99.90
18805;DHT22;9530;48.930;9.526;2022-08-25T12:23:42;32.10;99.80
18805;DHT22;9530;48.930;9.526;2022-08-25T12:26:17;32.30;99.70
18805;DHT22;9530;48.930;9.526;2022-08-25T12:28:59;32.20;99.50
18805;DHT22;9530;48.930;9.526;2022-08-25T12:31:48;32.20;99.00
18805;DHT22;9530;48.930;9.526;2022-08-25T12:34:28;32.20;99.30
18805;DHT22;9530;48.930;9.526;2022-08-25T12:36:59;32.00;98.60
18805;DHT22;9530;48.930;9.526;2022-08-25T12:39:32;32.00;98.20
18805;DHT22;9530;48.930;9.526;2022-08-25T12:42:02;31.80;98.10
18805;DHT22;9530;48.930;9.526;2022-08-25T12:44:36;31.40;99.60
18805;DHT22;9530;48.930;9.526;2022-08-25T12:47:10;31.40;98.30
18805;DHT22;9530;48.930;9.526;2022-08-25T12:49:37;31.40;98.40
18805;DHT22;9530;48.930;9.526;2022-08-25T12:52:07;31.60;99.20
18805;DHT22;9530;48.930;9.526;2022-08-25T12:54:44;31.80;97.50
18805;DHT22;9530;48.930;9.526;2022-08-25T12:57:32;32.00;97.60
18805;DHT22;9530;48.930;9.526;2022-08-25T13:00:09;32.20;97.40
18805;DHT22;9530;48.930;9.526;2022-08-25T13:03:06;32.10;97.00
18805;DHT22;9530;48.930;9.526;2022-08-25T13:05:53;31.80;97.90
18805;DHT22;9530;48.930;9.526;2022-08-25T13:11:26;31.10;98.10
18805;DHT22;9530;48.930;9.526;2022-08-25T13:13:59;31.30;98.30
18805;DHT22;9530;48.930;9.526;2022-08-25T13:16:28;31.60;98.20
18805;DHT22;9530;48.930;9.526;2022-08-25T13:18:56;31.70;97.60
18805;DHT22;9530;48.930;9.526;2022-08-25T13:21:28;31.50;97.40
18805;DHT22;9530;48.930;9.526;2022-08-25T13:23:57;31.10;98.10
18805;DHT22;9530;48.930;9.526;2022-08-25T13:26:28;31.00;99.10
18805;DHT22;9530;48.930;9.526;2022-08-25T13:28:57;30.60;98.40
18805;DHT22;9530;48.930;9.526;2022-08-25T13:31:25;30.50;98.30
18805;DHT22;9530;48.930;9.526;2022-08-25T13:33:55;30.60;98.50
18805;DHT22;9530;48.930;9.526;2022-08-25T13:36:24;30.80;97.80
18805;DHT22;9530;48.930;9.526;2022-08-25T13:39:14;31.10;97.00
18805;DHT22;9530;48.930;9.526;2022-08-25T13:41:48;31.40;97.20
18805;DHT22;9530;48.930;9.526;2022-08-25T13:44:16;31.80;96.90
18805;DHT22;9530;48.930;9.526;2022-08-25T13:46:44;31.80;96.70
18805;DHT22;9530;48.930;9.526;2022-08-25T13:49:11;31.80;96.00
18805;DHT22;9530;48.930;9.526;2022-08-25T13:51:50;31.80;96.20
18805;DHT22;9530;48.930;9.526;2022-08-25T13:54:24;31.90;96.30
18805;DHT22;9530;48.930;9.526;2022-08-25T13:56:52;31.90;96.10
18805;DHT22;9530;48.930;9.526;2022-08-25T13:59:22;32.00;96.30
18805;DHT22;9530;48.930;9.526;2022-08-25T14:01:50;32.00;96.10
18805;DHT22;9530;48.930;9.526;2022-08-25T14:04:27;32.10;95.60
18805;DHT22;9530;48.930;9.526;2022-08-25T14:07:14;32.00;95.70
18805;DHT22;9530;48.930;9.526;2022-08-25T14:09:46;32.30;95.50
18805;DHT22;9530;48.930;9.526;2022-08-25T14:12:29;32.20;95.30
18805;DHT22;9530;48.930;9.526;2022-08-25T14:14:59;31.60;95.40
18805;DHT22;9530;48.930;9.526;2022-08-25T14:17:26;31.20;95.70
18805;DHT22;9530;48.930;9.526;2022-08-25T14:19:53;30.70;95.90
18805;DHT22;9530;48.930;9.526;2022-08-25T14:22:20;30.40;96.40
18805;DHT22;9530;48.930;9.526;2022-08-25T14:24:47;30.20;96.50
18805;DHT22;9530;48.930;9.526;2022-08-25T14:27:14;30.00;96.80
18805;DHT22;9530;48.930;9.526;2022-08-25T14:29:42;29.90;97.10
18805;DHT22;9530;48.930;9.526;2022-08-25T14:32:09;30.10;97.40
18805;DHT22;9530;48.930;9.526;2022-08-25T14:34:36;30.50;96.70
18805;DHT22;9530;48.930;9.526;2022-08-25T14:37:05;30.90;96.00
18805;DHT22;9530;48.930;9.526;2022-08-25T14:39:35;31.30;96.20
18805;DHT22;9530;48.930;9.526;2022-08-25T14:42:01;31.70;95.80
18805;DHT22;9530;48.930;9.526;2022-08-25T14:44:28;32.00;95.70
18805;DHT22;9530;48.930;9.526;2022-08-25T14:46:56;32.20;95.40
18805;DHT22;9530;48.930;9.526;2022-08-25T14:49:25;32.20;94.70
18805;DHT22;9530;48.930;9.526;2022-08-25T14:51:56;32.30;94.60
18805;DHT22;9530;48.930;9.526;2022-08-25T14:54:25;32.20;94.50
18805;DHT22;9530;48.930;9.526;2022-08-25T14:56:53;32.40;94.10
18805;DHT22;9530;48.930;9.526;2022-08-25T14:59:20;32.50;93.80
18805;DHT22;9530;48.930;9.526;2022-08-25T15:01:47;32.60;94.70
18805;DHT22;9530;48.930;9.526;2022-08-25T15:04:17;32.40;93.90
18805;DHT22;9530;48.930;9.526;2022-08-25T15:06:45;32.40;93.90
18805;DHT22;9530;48.930;9.526;2022-08-25T15:09:14;32.20;94.20
18805;DHT22;9530;48.930;9.526;2022-08-25T15:11:43;32.00;94.00
18805;DHT22;9530;48.930;9.526;2022-08-25T15:14:12;32.00;94.40
18805;DHT22;9530;48.930;9.526;2022-08-25T15:16:43;32.10;93.70
18805;DHT22;9530;48.930;9.526;2022-08-25T15:19:12;32.00;93.70
18805;DHT22;9530;48.930;9.526;2022-08-25T15:21:43;32.20;93.50
18805;DHT22;9530;48.930;9.526;2022-08-25T15:24:11;32.30;93.50
18805;DHT22;9530;48.930;9.526;2022-08-25T15:26:41;32.30;93.50
18805;DHT22;9530;48.930;9.526;2022-08-25T15:29:09;32.50;93.80
18805;DHT22;9530;48.930;9.526;2022-08-25T15:31:36;32.70;93.50
18805;DHT22;9530;48.930;9.526;2022-08-25T15:34:03;32.80;92.60
18805;DHT22;9530;48.930;9.526;2022-08-25T15:36:31;33.60;92.40
18805;DHT22;9530;48.930;9.526;2022-08-25T15:39:00;35.20;90.30
18805;DHT22;9530;48.930;9.526;2022-08-25T15:41:27;36.40;87.00
18805;DHT22;9530;48.930;9.526;2022-08-25T15:43:54;37.60;82.90
18805;DHT22;9530;48.930;9.526;2022-08-25T15:46:23;38.20;79.90
18805;DHT22;9530;48.930;9.526;2022-08-25T15:48:50;38.40;77.30
18805;DHT22;9530;48.930;9.526;2022-08-25T15:51:17;39.30;75.10
18805;DHT22;9530;48.930;9.526;2022-08-25T15:53:44;39.40;72.10
18805;DHT22;9530;48.930;9.526;2022-08-25T15:56:12;39.90;69.50
18805;DHT22;9530;48.930;9.526;2022-08-25T15:58:42;39.70;68.60
18805;DHT22;9530;48.930;9.526;2022-08-25T16:01:11;39.50;68.60
18805;DHT22;9530;48.930;9.526;2022-08-25T16:03:38;39.50;66.60
18805;DHT22;9530;48.930;9.526;2022-08-25T16:06:05;40.00;66.60
18805;DHT22;9530;48.930;9.526;2022-08-25T16:08:32;40.30;64.40
18805;DHT22;9530;48.930;9.526;2022-08-25T16:10:58;40.20;63.40
18805;DHT22;9530;48.930;9.526;2022-08-25T16:13:26;40.00;63.90
18805;DHT22;9530;48.930;9.526;2022-08-25T16:15:53;39.60;63.80
18805;DHT22;9530;48.930;9.526;2022-08-25T16:18:20;39.40;63.70
18805;DHT22;9530;48.930;9.526;2022-08-25T16:20:47;39.50;64.60
18805;DHT22;9530;48.930;9.526;2022-08-25T16:23:16;39.00;64.60
18805;DHT22;9530;48.930;9.526;2022-08-25T16:25:45;36.60;68.40
18805;DHT22;9530;48.930;9.526;2022-08-25T16:28:14;35.10;72.70
18805;DHT22;9530;48.930;9.526;2022-08-25T16:30:45;33.90;75.20
18805;DHT22;9530;48.930;9.526;2022-08-25T16:33:12;32.60;78.40
18805;DHT22;9530;48.930;9.526;2022-08-25T16:35:40;31.80;81.50
18805;DHT22;9530;48.930;9.526;2022-08-25T16:38:07;31.00;83.00
18805;DHT22;9530;48.930;9.526;2022-08-25T16:40:37;30.70;85.70
18805;DHT22;9530;48.930;9.526;2022-08-25T16:43:04;30.20;86.50
18805;DHT22;9530;48.930;9.526;2022-08-25T16:45:32;29.80;85.50
18805;DHT22;9530;48.930;9.526;2022-08-25T16:48:00;29.80;86.30
18805;DHT22;9530;48.930;9.526;2022-08-25T16:50:27;30.10;86.40
18805;DHT22;9530;48.930;9.526;2022-08-25T16:52:55;30.10;86.30
18805;DHT22;9530;48.930;9.526;2022-08-25T16:55:39;29.80;87.50
18805;DHT22;9530;48.930;9.526;2022-08-25T16:58:06;29.70;88.10
18805;DHT22;9530;48.930;9.526;2022-08-25T17:00:36;29.40;89.20
18805;DHT22;9530;48.930;9.526;2022-08-25T17:03:05;29.20;90.30
18805;DHT22;9530;48.930;9.526;2022-08-25T17:05:32;28.90;90.70
18805;DHT22;9530;48.930;9.526;2022-08-25T17:08:04;28.80;90.70
18805;DHT22;9530;48.930;9.526;2022-08-25T17:10:48;28.80;91.30
18805;DHT22;9530;48.930;9.526;2022-08-25T17:13:14;28.70;91.70
18805;DHT22;9530;48.930;9.526;2022-08-25T17:15:42;28.70;92.10
18805;DHT22;9530;48.930;9.526;2022-08-25T17:18:11;28.80;92.20